Time;durP1;ratioP1;P1;durP2;ratioP2;P2;SDS_P1;SDS_P2;PMS_P1;PMS_P2;Temp;Humidity;BMP_temperature;BMP_pressure;BME280_temperature;BME280_humidity;BME280_pressure;Samples;Min_cycle;Max_cycle;Signal;HPM_P1;HPM_P2
2021/08/26 00:07:32;;;;;;;6.30;4.73;;;;;;;17.17;59.73;96623.66;5012180;28;20218;-63
2021/08/26 00:09:57;;;;;;;8.70;4.90;;;;;;;17.15;60.01;96620.53;5011187;28;20215;-63
2021/08/26 00:12:23;;;;;;;6.80;5.03;;;;;;;16.98;60.51;96612.91;5044519;28;20217;-63
2021/08/26 00:14:48;;;;;;;6.20;4.90;;;;;;;17.05;60.39;96610.78;5052428;28;20205;-62
2021/08/26 00:17:14;;;;;;;5.43;4.83;;;;;;;17.03;60.25;96612.88;5044435;28;20276;-69
2021/08/26 00:19:41;;;;;;;7.97;5.33;;;;;;;17.00;60.73;96608.91;5033130;28;20643;-63
2021/08/26 00:22:07;;;;;;;5.87;4.77;;;;;;;16.86;64.08;96601.84;5042555;28;20186;-63
2021/08/26 00:24:32;;;;;;;8.10;4.97;;;;;;;17.04;64.82;96585.34;5048781;28;20777;-62
2021/08/26 00:26:58;;;;;;;6.87;5.43;;;;;;;16.78;66.39;96594.44;5052419;28;20182;-63
2021/08/26 00:29:23;;;;;;;5.87;4.83;;;;;;;16.63;66.43;96590.78;5051142;28;20178;-63
2021/08/26 00:31:48;;;;;;;7.73;4.97;;;;;;;16.46;67.29;96587.63;5051980;28;20670;-62
2021/08/26 00:34:14;;;;;;;6.53;4.80;;;;;;;16.27;67.21;96586.63;5051883;28;20176;-70
2021/08/26 00:36:39;;;;;;;9.73;4.70;;;;;;;16.21;67.32;96595.63;5047905;28;20220;-63
2021/08/26 00:39:04;;;;;;;7.77;4.27;;;;;;;16.14;66.53;96587.16;5051807;28;20252;-68
2021/08/26 00:41:30;;;;;;;8.37;4.57;;;;;;;16.03;66.53;96590.88;5051127;28;20226;-63
2021/08/26 00:43:56;;;;;;;7.00;4.30;;;;;;;16.00;65.69;96594.03;5052244;28;20214;-62
2021/08/26 00:46:21;;;;;;;6.43;4.30;;;;;;;15.82;66.05;96589.31;5035268;28;20214;-62
2021/08/26 00:48:48;;;;;;;7.47;4.63;;;;;;;16.03;65.34;96602.25;5032250;28;20190;-62
2021/08/26 00:51:14;;;;;;;5.63;4.53;;;;;;;16.04;65.15;96584.53;5031957;28;20188;-63
2021/08/26 00:53:40;;;;;;;5.57;3.97;;;;;;;15.89;66.09;96587.97;5031495;28;20186;-62
2021/08/26 00:56:13;;;;;;;6.60;4.43;;;;;;;15.82;66.44;96592.75;5044419;28;20305;-65
2021/08/26 00:58:39;;;;;;;7.47;4.57;;;;;;;15.73;66.74;96589.03;5051305;28;20178;-63
2021/08/26 01:01:09;;;;;;;6.60;3.93;;;;;;;15.64;67.20;96583.47;5050363;28;20574;-63
2021/08/26 01:03:57;;;;;;;5.60;4.23;;;;;;;15.78;66.67;96579.25;5050422;28;20178;-63
2021/08/26 01:06:30;;;;;;;5.00;3.97;;;;;;;15.65;67.43;96573.69;5035286;28;20648;-63
2021/08/26 01:09:10;;;;;;;6.90;4.60;;;;;;;15.63;67.34;96573.16;5031672;28;20269;-63
2021/08/26 01:11:36;;;;;;;8.13;4.40;;;;;;;15.69;67.01;96561.53;5032627;28;20348;-63
2021/08/26 01:14:03;;;;;;;6.60;4.50;;;;;;;15.60;67.03;96560.50;5031693;28;20179;-62
2021/08/26 01:16:29;;;;;;;4.97;4.23;;;;;;;15.73;66.56;96557.31;5037631;28;20609;-63
2021/08/26 01:18:54;;;;;;;5.70;4.53;;;;;;;15.74;65.88;96558.91;5030327;28;20191;-63
2021/08/26 01:21:22;;;;;;;5.93;4.53;;;;;;;15.70;66.10;96555.19;5068796;28;20276;-63
2021/08/26 01:23:51;;;;;;;4.10;3.70;;;;;;;15.61;66.18;96552.28;5037559;28;20821;-65
2021/08/26 01:26:41;;;;;;;5.50;4.20;;;;;;;15.67;65.90;96548.59;5030951;28;20189;-69
2021/08/26 01:29:07;;;;;;;7.37;4.37;;;;;;;15.60;65.28;96550.72;5031501;28;20313;-63
2021/08/26 01:31:34;;;;;;;5.13;4.23;;;;;;;15.47;66.00;96561.75;5030749;28;20227;-63
2021/08/26 01:34:01;;;;;;;4.60;3.87;;;;;;;15.54;65.90;96557.06;5029818;28;20270;-65
2021/08/26 01:36:31;;;;;;;8.13;4.40;;;;;;;15.62;65.46;96551.22;5045263;28;20197;-65
2021/08/26 01:39:07;;;;;;;5.73;4.13;;;;;;;15.61;65.38;96547.00;5050060;28;20248;-63
2021/08/26 01:41:48;;;;;;;7.43;4.03;;;;;;;15.56;65.95;96546.19;5049724;28;20673;-65
2021/08/26 01:44:18;;;;;;;6.37;4.33;;;;;;;15.44;66.19;96545.63;5011532;28;20176;-70
2021/08/26 01:46:44;;;;;;;4.87;3.90;;;;;;;15.55;66.01;96549.94;5012059;28;20182;-65
2021/08/26 01:49:09;;;;;;;6.17;4.63;;;;;;;15.58;65.97;96544.91;5011775;28;20179;-65
2021/08/26 01:51:36;;;;;;;4.60;3.73;;;;;;;15.66;65.63;96543.59;5010644;28;20497;-67
2021/08/26 01:54:01;;;;;;;6.87;4.27;;;;;;;15.69;65.61;96541.19;5030935;28;20190;-63
2021/08/26 01:56:27;;;;;;;5.13;3.87;;;;;;;15.73;65.47;96544.88;5029105;28;20210;-62
2021/08/26 01:58:52;;;;;;;5.27;4.03;;;;;;;15.57;66.30;96542.50;5031619;28;20217;-62
2021/08/26 02:01:18;;;;;;;6.93;4.00;;;;;;;15.57;66.12;96545.16;5032910;28;20197;-72
2021/08/26 02:03:43;;;;;;;5.50;4.13;;;;;;;15.67;65.90;96538.00;5050579;28;20189;-65
2021/08/26 02:06:08;;;;;;;5.50;3.80;;;;;;;15.53;66.43;96539.63;5054679;28;20518;-64
2021/08/26 02:08:35;;;;;;;7.33;3.83;;;;;;;15.55;66.23;96536.72;5037732;28;20182;-65
2021/08/26 02:11:00;;;;;;;5.00;4.13;;;;;;;15.42;67.02;96543.28;5033518;28;20181;-64
2021/08/26 02:13:25;;;;;;;6.13;4.50;;;;;;;15.61;66.33;96548.84;5052014;28;20193;-64
2021/08/26 02:15:51;;;;;;;6.07;4.20;;;;;;;15.63;66.47;96552.03;5048809;28;20212;-65
2021/08/26 02:18:16;;;;;;;5.83;4.13;;;;;;;15.66;66.03;96547.00;5034430;28;20175;-71
2021/08/26 02:20:41;;;;;;;5.63;4.30;;;;;;;15.57;66.73;96537.22;5034524;28;20233;-64
2021/08/26 02:23:07;;;;;;;7.73;4.20;;;;;;;15.51;66.90;96538.25;5036352;28;20187;-65
2021/08/26 02:25:32;;;;;;;7.30;4.30;;;;;;;15.46;67.07;96539.03;5033579;28;20182;-64
2021/08/26 02:27:58;;;;;;;7.33;3.90;;;;;;;15.37;67.31;96528.22;5034738;28;20217;-64
2021/08/26 02:30:23;;;;;;;7.10;3.93;;;;;;;15.39;67.32;96517.38;5033827;28;20266;-64
2021/08/26 02:32:48;;;;;;;7.60;4.33;;;;;;;15.30;67.45;96522.41;5044557;28;20200;-64
2021/08/26 02:35:14;;;;;;;6.23;4.47;;;;;;;15.30;67.68;96519.75;5045971;28;20212;-71
2021/08/26 02:37:39;;;;;;;7.77;4.80;;;;;;;15.33;67.69;96513.94;5034341;28;20236;-63
2021/08/26 02:40:05;;;;;;;7.53;4.43;;;;;;;15.56;67.03;96515.28;5054288;28;21981;-64
2021/08/26 02:42:31;;;;;;;6.93;4.10;;;;;;;15.45;66.98;96513.69;5053737;28;20230;-64
2021/08/26 02:44:57;;;;;;;5.77;4.47;;;;;;;15.42;67.23;96500.22;5048619;28;20231;-64
2021/08/26 02:47:22;;;;;;;8.47;4.73;;;;;;;15.45;67.39;96497.03;5033665;28;20178;-64
2021/08/26 02:49:48;;;;;;;5.20;4.20;;;;;;;15.55;66.49;96499.72;5035163;28;20635;-65
2021/08/26 02:52:13;;;;;;;6.47;4.27;;;;;;;15.36;67.19;96500.22;5034821;28;20194;-64
2021/08/26 02:54:39;;;;;;;4.80;3.73;;;;;;;15.40;66.84;96490.69;5040276;28;20182;-64
2021/08/26 02:57:04;;;;;;;8.57;4.50;;;;;;;15.38;66.93;96486.72;5037531;28;20191;-65
2021/08/26 02:59:29;;;;;;;5.57;4.47;;;;;;;15.39;67.12;96488.31;5033122;28;20574;-65
2021/08/26 03:01:55;;;;;;;7.87;4.60;;;;;;;15.44;66.96;96476.97;5048985;28;20190;-64
2021/08/26 03:04:20;;;;;;;5.87;4.27;;;;;;;15.67;65.95;96471.16;5044481;28;20200;-64
2021/08/26 03:06:46;;;;;;;7.47;4.73;;;;;;;15.77;65.35;96473.81;5040910;28;20185;-64
2021/08/26 03:09:11;;;;;;;7.77;4.80;;;;;;;15.91;65.55;96472.19;5053556;28;20227;-64
2021/08/26 03:11:36;;;;;;;7.30;4.93;;;;;;;15.87;65.31;96460.59;5040415;28;20186;-64
2021/08/26 03:14:02;;;;;;;7.10;4.97;;;;;;;15.92;64.94;96446.56;5033634;28;20182;-68
2021/08/26 03:16:27;;;;;;;7.40;4.90;;;;;;;15.87;65.17;96446.56;5022677;28;20688;-64
2021/08/26 03:18:52;;;;;;;6.63;5.07;;;;;;;15.98;65.06;96454.22;5012797;28;20187;-64
2021/08/26 03:21:18;;;;;;;7.60;4.83;;;;;;;15.95;65.45;96451.28;5026346;28;20495;-71
2021/08/26 03:23:43;;;;;;;7.40;4.67;;;;;;;15.98;64.95;96456.06;5034551;28;20261;-64
2021/08/26 03:26:08;;;;;;;7.33;5.00;;;;;;;15.93;65.22;96451.59;5053488;28;20178;-63
2021/08/26 03:28:34;;;;;;;6.27;4.57;;;;;;;15.89;65.28;96458.44;5052461;28;20178;-64
2021/08/26 03:30:59;;;;;;;6.67;4.57;;;;;;;15.92;65.32;96446.56;5049772;28;20175;-63
2021/08/26 03:33:25;;;;;;;8.33;5.10;;;;;;;15.91;65.27;96453.69;5033044;28;20646;-64
2021/08/26 03:35:50;;;;;;;6.17;4.80;;;;;;;15.86;65.71;96458.19;5033336;28;20703;-64
2021/08/26 03:38:17;;;;;;;5.90;4.70;;;;;;;15.90;65.42;96454.75;5038332;28;20231;-71
2021/08/26 03:40:42;;;;;;;5.03;4.30;;;;;;;15.86;65.63;96464.28;5040120;28;20214;-64
2021/08/26 03:43:08;;;;;;;6.60;4.47;;;;;;;15.95;65.26;96465.31;5051396;28;20205;-64
2021/08/26 03:45:34;;;;;;;7.70;4.17;;;;;;;15.84;65.29;96469.03;5043556;28;20187;-63
2021/08/26 03:47:59;;;;;;;6.57;4.43;;;;;;;15.85;65.85;96475.09;5039797;28;20237;-64
2021/08/26 03:50:25;;;;;;;5.27;4.10;;;;;;;15.58;66.52;96465.63;5039069;28;20548;-64
2021/08/26 03:52:51;;;;;;;6.07;4.43;;;;;;;15.70;66.83;96470.66;5035906;28;20185;-64
2021/08/26 03:55:16;;;;;;;7.53;4.77;;;;;;;15.75;66.71;96471.44;5046105;28;20203;-71
2021/08/26 03:57:41;;;;;;;7.57;4.63;;;;;;;15.81;66.79;96469.56;5040893;28;20189;-67
2021/08/26 04:00:07;;;;;;;7.87;5.07;;;;;;;15.75;66.97;96465.34;5033975;28;20586;-64
2021/08/26 04:02:33;;;;;;;8.27;4.77;;;;;;;15.79;66.34;96455.81;5038913;28;20182;-64
2021/08/26 04:04:58;;;;;;;4.70;3.90;;;;;;;15.69;66.81;96453.22;5043060;28;20186;-63
2021/08/26 04:07:25;;;;;;;5.90;4.33;;;;;;;15.53;67.44;96449.78;5044883;28;20175;-63
2021/08/26 04:09:51;;;;;;;7.10;4.57;;;;;;;15.57;67.35;96450.84;5048181;28;20265;-64
2021/08/26 04:12:17;;;;;;;7.33;4.63;;;;;;;15.63;67.14;96448.97;5037422;28;20757;-71
2021/08/26 04:14:42;;;;;;;7.30;4.73;;;;;;;15.57;67.49;96455.31;5041657;28;20194;-65
2021/08/26 04:17:07;;;;;;;8.57;4.63;;;;;;;15.52;67.73;96461.41;5032027;28;20260;-64
2021/08/26 04:19:33;;;;;;;6.37;4.30;;;;;;;15.46;68.15;96453.72;5041905;28;20840;-64
2021/08/26 04:21:58;;;;;;;7.57;4.67;;;;;;;15.64;67.84;96453.22;5043795;28;20263;-65
2021/08/26 04:24:24;;;;;;;5.70;4.43;;;;;;;15.77;67.41;96453.44;5035863;28;20567;-64
2021/08/26 04:26:49;;;;;;;6.97;4.73;;;;;;;15.98;66.72;96445.50;5048333;28;20185;-65
2021/08/26 04:29:14;;;;;;;9.87;4.60;;;;;;;15.93;66.80;96454.22;5034797;28;20620;-70
2021/08/26 04:31:40;;;;;;;7.77;5.20;;;;;;;15.85;67.04;96444.19;5043340;28;20178;-64
2021/08/26 04:34:05;;;;;;;5.27;4.13;;;;;;;15.77;67.56;96457.97;5035346;28;20191;-65
2021/08/26 04:36:31;;;;;;;7.60;4.33;;;;;;;15.76;67.39;96451.09;5042282;28;20724;-64
2021/08/26 04:38:56;;;;;;;7.80;5.07;;;;;;;15.70;67.84;96445.03;5043011;28;20185;-64
2021/08/26 04:41:22;;;;;;;7.63;4.77;;;;;;;15.72;67.84;96442.09;5033989;28;20225;-66
2021/08/26 04:43:47;;;;;;;8.20;4.97;;;;;;;15.80;67.83;96438.91;5045304;28;20248;-65
2021/08/26 04:46:12;;;;;;;6.60;4.27;;;;;;;15.73;68.08;96441.81;5032487;28;20236;-64
2021/08/26 04:48:38;;;;;;;7.07;5.40;;;;;;;15.81;67.44;96432.56;5039056;28;20170;-64
2021/08/26 04:51:03;;;;;;;6.70;4.67;;;;;;;15.73;67.91;96428.63;5039598;28;20543;-64
2021/08/26 04:53:29;;;;;;;6.43;4.93;;;;;;;15.96;67.41;96432.53;5041345;28;20666;-64
2021/08/26 04:55:55;;;;;;;8.43;5.07;;;;;;;15.97;67.17;96435.97;5043805;28;20253;-64
2021/08/26 04:58:20;;;;;;;9.97;5.10;;;;;;;15.82;67.90;96441.28;5041035;28;20222;-65
2021/08/26 05:00:45;;;;;;;6.67;4.90;;;;;;;15.94;67.84;96449.72;5045217;28;20182;-64
2021/08/26 05:03:11;;;;;;;7.53;5.30;;;;;;;16.15;67.08;96440.69;5039955;28;20236;-64
2021/08/26 05:05:36;;;;;;;7.03;5.10;;;;;;;16.00;67.42;96443.34;5035051;28;20178;-64
2021/08/26 05:08:02;;;;;;;6.70;4.93;;;;;;;16.06;67.46;96445.72;5042976;28;20178;-64
2021/08/26 05:10:27;;;;;;;8.37;5.03;;;;;;;16.08;67.42;96440.16;5038637;28;20183;-65
2021/08/26 05:12:53;;;;;;;8.33;4.40;;;;;;;16.24;66.85;96444.34;5035114;28;20231;-65
2021/08/26 05:15:18;;;;;;;6.63;4.90;;;;;;;16.32;66.70;96451.72;5028300;28;20217;-65
2021/08/26 05:17:43;;;;;;;4.97;4.40;;;;;;;16.20;66.60;96456.53;5031526;28;20229;-65
2021/08/26 05:20:09;;;;;;;7.47;4.77;;;;;;;16.08;67.54;96453.38;5033469;28;20257;-64
2021/08/26 05:22:35;;;;;;;5.70;4.03;;;;;;;16.23;67.04;96445.38;5050720;28;20182;-65
2021/08/26 05:25:00;;;;;;;6.97;4.90;;;;;;;16.37;66.67;96448.25;5051279;28;20188;-66
2021/08/26 05:27:25;;;;;;;8.20;5.47;;;;;;;16.34;66.77;96449.56;5050324;28;20178;-65
2021/08/26 05:29:51;;;;;;;7.70;4.60;;;;;;;16.35;66.71;96448.53;5051148;28;20287;-65
2021/08/26 05:32:16;;;;;;;7.30;4.87;;;;;;;16.43;66.51;96453.25;5032026;28;20537;-70
2021/08/26 05:34:42;;;;;;;7.23;4.97;;;;;;;16.59;65.79;96446.84;5030815;28;20265;-65
2021/08/26 05:37:09;;;;;;;7.17;5.37;;;;;;;16.47;66.28;96451.66;5033978;28;20171;-65
2021/08/26 05:39:34;;;;;;;7.60;5.40;;;;;;;16.34;66.59;96443.50;5034751;28;20183;-65
2021/08/26 05:41:59;;;;;;;8.43;5.30;;;;;;;16.27;66.84;96443.81;5035896;28;20233;-66
2021/08/26 05:44:25;;;;;;;9.37;4.80;;;;;;;15.88;68.60;96456.09;5034593;28;20185;-67
2021/08/26 05:46:50;;;;;;;13.63;5.20;;;;;;;15.71;69.44;96464.31;5035945;28;20197;-66
2021/08/26 05:49:16;;;;;;;6.70;5.03;;;;;;;15.95;68.88;96460.00;5047332;28;20181;-74
2021/08/26 05:51:41;;;;;;;7.17;4.40;;;;;;;16.08;68.39;96459.47;5045365;28;20181;-67
2021/08/26 05:54:06;;;;;;;6.90;4.73;;;;;;;16.01;68.35;96460.78;5055448;28;20264;-66
2021/08/26 05:56:32;;;;;;;9.13;5.20;;;;;;;15.86;69.12;96466.91;5054116;28;20554;-68
2021/08/26 05:58:57;;;;;;;5.60;4.40;;;;;;;16.07;68.81;96454.44;5055225;28;20631;-67
2021/08/26 06:01:27;;;;;;;7.90;4.93;;;;;;;16.28;68.04;96460.44;5046650;28;20368;-67
2021/08/26 06:03:54;;;;;;;6.70;4.73;;;;;;;16.25;68.46;96456.50;5054213;28;20206;-69
2021/08/26 06:06:19;;;;;;;7.97;4.80;;;;;;;16.47;68.18;96458.78;5050752;28;20265;-72
2021/08/26 06:08:45;;;;;;;8.20;5.40;;;;;;;16.46;67.79;96465.94;5053470;28;20180;-68
2021/08/26 06:11:10;;;;;;;8.03;5.30;;;;;;;16.63;67.45;96458.47;5035035;28;20194;-68
2021/08/26 06:13:35;;;;;;;8.20;5.10;;;;;;;16.59;67.81;96467.22;5033758;28;20186;-68
2021/08/26 06:16:01;;;;;;;12.27;6.40;;;;;;;16.51;68.39;96459.81;5047228;28;20568;-69
2021/08/26 06:18:26;;;;;;;9.93;6.60;;;;;;;16.55;67.91;96466.94;5034112;28;20628;-69
2021/08/26 06:20:51;;;;;;;8.50;6.17;;;;;;;16.40;68.42;96464.38;5048546;28;20597;-69
2021/08/26 06:23:17;;;;;;;9.17;6.57;;;;;;;16.32;69.24;96462.28;5033818;28;20281;-71
2021/08/26 06:25:43;;;;;;;10.03;6.60;;;;;;;16.51;68.62;96471.19;5033666;28;20190;-68
2021/08/26 06:28:08;;;;;;;8.70;5.80;;;;;;;16.56;68.19;96473.03;5033083;28;20705;-69
2021/08/26 06:30:34;;;;;;;7.47;5.63;;;;;;;16.54;68.61;96478.59;5034076;28;20258;-69
2021/08/26 06:32:59;;;;;;;8.13;5.93;;;;;;;16.61;68.33;96481.75;5031408;28;20580;-68
2021/08/26 06:35:25;;;;;;;9.60;6.33;;;;;;;16.71;67.47;96488.88;5032796;28;20248;-69
2021/08/26 06:37:50;;;;;;;7.70;6.27;;;;;;;16.48;68.66;96479.69;5034932;28;20175;-69
2021/08/26 06:40:16;;;;;;;10.83;6.67;;;;;;;16.44;68.83;96483.91;5035851;28;20183;-69
2021/08/26 06:42:42;;;;;;;9.33;6.80;;;;;;;16.51;68.90;96484.44;5030321;28;20711;-70
2021/08/26 06:45:08;;;;;;;9.27;6.03;;;;;;;16.41;68.83;96475.75;5034337;28;20185;-70
2021/08/26 06:47:33;;;;;;;7.70;6.10;;;;;;;16.37;69.17;96480.78;5033348;28;20257;-70
2021/08/26 06:49:59;;;;;;;8.20;6.40;;;;;;;16.41;69.29;96486.31;5036021;28;20286;-69
2021/08/26 06:52:24;;;;;;;11.30;6.60;;;;;;;16.36;69.46;96483.69;5046155;28;20194;-69
2021/08/26 06:54:49;;;;;;;8.13;6.40;;;;;;;16.26;69.61;96479.25;5049180;28;20277;-69
2021/08/26 06:57:15;;;;;;;9.10;6.80;;;;;;;16.45;69.00;96484.72;5049684;28;20224;-69
2021/08/26 06:59:40;;;;;;;9.00;6.77;;;;;;;16.41;69.40;96483.69;5038221;28;20190;-67
2021/08/26 07:02:06;;;;;;;9.03;5.67;;;;;;;16.13;70.33;96479.81;5042180;28;20193;-69
2021/08/26 07:04:31;;;;;;;11.17;7.00;;;;;;;16.40;69.46;96479.44;5041862;28;20265;-69
2021/08/26 07:06:57;;;;;;;9.57;6.70;;;;;;;16.25;69.76;96469.72;5033857;28;20182;-69
2021/08/26 07:09:23;;;;;;;7.97;6.17;;;;;;;16.22;69.95;96475.53;5047341;28;20178;-69
2021/08/26 07:11:48;;;;;;;8.77;6.13;;;;;;;16.37;69.59;96478.16;5053522;28;20182;-69
2021/08/26 07:14:14;;;;;;;9.43;7.30;;;;;;;16.16;70.29;96471.34;5038016;28;20248;-69
2021/08/26 07:16:40;;;;;;;11.77;7.00;;;;;;;16.34;69.70;96469.94;5032643;28;20209;-69
2021/08/26 07:19:05;;;;;;;8.37;6.57;;;;;;;16.23;70.23;96466.53;5036379;28;20206;-69
2021/08/26 07:21:30;;;;;;;6.53;5.73;;;;;;;16.02;71.38;96462.38;5052627;28;20232;-68
2021/08/26 07:23:56;;;;;;;8.40;6.23;;;;;;;15.99;71.56;96463.72;5040209;28;20593;-69
2021/08/26 07:26:21;;;;;;;8.97;7.00;;;;;;;15.67;72.38;96453.47;5049658;28;20216;-69
2021/08/26 07:28:47;;;;;;;10.70;7.37;;;;;;;15.75;73.06;96463.50;5035066;28;20585;-70
2021/08/26 07:31:12;;;;;;;10.83;6.83;;;;;;;16.09;71.81;96458.41;5034061;28;20190;-69
2021/08/26 07:33:38;;;;;;;14.27;7.33;;;;;;;16.20;71.26;96459.97;5032007;28;20185;-69
2021/08/26 07:36:04;;;;;;;11.37;7.30;;;;;;;16.50;70.59;96456.38;5052023;28;20565;-69
2021/08/26 07:38:30;;;;;;;8.63;6.50;;;;;;;16.71;69.43;96457.13;5049747;28;20227;-70
2021/08/26 07:40:56;;;;;;;10.07;7.17;;;;;;;16.90;68.87;96447.47;5053131;28;20368;-69
2021/08/26 07:43:25;;;;;;;11.60;6.70;;;;;;;17.12;68.00;96448.91;5052637;28;20162;-72
2021/08/26 07:45:51;;;;;;;11.07;7.33;;;;;;;17.09;68.26;96444.16;5053109;28;21072;-69
2021/08/26 07:48:17;;;;;;;9.73;7.03;;;;;;;16.84;68.72;96432.66;5053080;28;20181;-69
2021/08/26 07:50:43;;;;;;;9.63;7.10;;;;;;;17.03;68.47;96435.47;5050770;28;20669;-70
2021/08/26 07:53:09;;;;;;;10.00;6.57;;;;;;;16.83;67.86;96443.56;5052843;28;20178;-69
2021/08/26 07:55:34;;;;;;;8.47;5.73;;;;;;;17.01;67.78;96438.38;5052020;28;20204;-69
2021/08/26 07:58:00;;;;;;;9.03;6.33;;;;;;;16.84;68.15;96442.47;5052799;28;20174;-69
2021/08/26 08:00:25;;;;;;;6.83;5.93;;;;;;;16.94;67.96;96442.44;5042709;28;20285;-69
2021/08/26 08:02:51;;;;;;;12.73;6.73;;;;;;;16.92;67.71;96433.97;5046170;28;20178;-69
2021/08/26 08:05:16;;;;;;;6.77;6.07;;;;;;;16.87;67.86;96444.59;5052014;28;20209;-69
2021/08/26 08:07:45;;;;;;;9.30;6.17;;;;;;;16.86;68.40;96451.72;5052061;28;20186;-69
2021/08/26 08:10:11;;;;;;;7.67;6.30;;;;;;;17.24;67.21;96454.63;5035060;28;20551;-69
2021/08/26 08:12:36;;;;;;;7.70;5.60;;;;;;;17.31;67.14;96453.28;5030472;28;20543;-70
2021/08/26 08:15:02;;;;;;;8.87;5.60;;;;;;;17.12;67.51;96451.56;5030357;28;20289;-69
2021/08/26 08:17:27;;;;;;;10.30;6.50;;;;;;;17.10;67.71;96451.84;5036393;28;20576;-69
2021/08/26 08:19:53;;;;;;;8.13;6.13;;;;;;;17.20;67.46;96450.97;5051589;28;20611;-69
2021/08/26 08:22:18;;;;;;;8.40;6.17;;;;;;;17.33;66.99;96455.66;5050893;28;20269;-69
2021/08/26 08:24:43;;;;;;;7.73;5.87;;;;;;;17.49;66.49;96449.16;5031701;28;20171;-69
2021/08/26 08:27:09;;;;;;;10.10;5.67;;;;;;;17.74;66.31;96450.78;5045994;28;20182;-69
2021/08/26 08:29:34;;;;;;;9.63;6.37;;;;;;;17.71;67.42;96454.03;5030907;28;20183;-65
2021/08/26 08:32:00;;;;;;;12.37;6.33;;;;;;;17.66;68.72;96460.16;5032316;28;20183;-65
2021/08/26 08:34:25;;;;;;;8.87;6.10;;;;;;;17.20;69.80;96457.06;5030548;28;20187;-67
2021/08/26 08:36:50;;;;;;;11.13;7.77;;;;;;;16.16;74.82;96455.47;5032210;28;20647;-65
2021/08/26 08:39:16;;;;;;;12.97;8.57;;;;;;;15.90;76.84;96457.38;5033993;28;20265;-64
2021/08/26 08:41:44;;;;;;;10.87;7.80;;;;;;;15.90;78.68;96454.75;5049410;28;20237;-65
2021/08/26 08:44:13;;;;;;;10.77;7.73;;;;;;;15.57;81.77;96464.03;5051820;28;20182;-65
2021/08/26 08:46:39;;;;;;;11.80;8.97;;;;;;;15.45;84.98;96452.94;5049744;28;20228;-66
2021/08/26 08:49:08;;;;;;;14.20;9.40;;;;;;;15.75;84.84;96455.56;5046559;28;20257;-65
2021/08/26 08:51:34;;;;;;;11.33;10.10;;;;;;;15.81;84.36;96451.06;5049222;28;20174;-64
2021/08/26 08:53:59;;;;;;;12.43;10.13;;;;;;;15.82;86.05;96451.88;5050622;28;20193;-64
2021/08/26 08:56:27;;;;;;;11.20;8.67;;;;;;;16.13;85.36;96451.50;5038975;28;20625;-65
2021/08/26 08:58:57;;;;;;;10.73;8.70;;;;;;;16.34;85.20;96456.72;5031668;28;20245;-65
2021/08/26 09:01:22;;;;;;;11.07;9.03;;;;;;;16.54;84.23;96457.44;5033946;28;20166;-71
2021/08/26 09:03:48;;;;;;;13.63;9.13;;;;;;;16.75;83.25;96452.06;5051540;28;20190;-65
2021/08/26 09:06:14;;;;;;;11.50;8.73;;;;;;;16.44;85.60;96464.63;5051809;28;20214;-65
2021/08/26 09:08:39;;;;;;;12.07;9.57;;;;;;;16.49;85.92;96459.31;5038986;28;20187;-66
2021/08/26 09:11:09;;;;;;;12.20;10.40;;;;;;;16.61;88.29;96465.88;5049276;28;20265;-64
2021/08/26 09:13:35;;;;;;;14.40;10.57;;;;;;;16.85;85.21;96463.38;5045135;28;20201;-65
2021/08/26 09:16:01;;;;;;;14.83;9.67;;;;;;;16.87;85.66;96457.81;5051470;28;20197;-65
2021/08/26 09:18:28;;;;;;;12.20;9.00;;;;;;;17.12;84.24;96459.50;5041748;28;20210;-65
2021/08/26 09:20:58;;;;;;;12.70;9.00;;;;;;;16.61;85.17;96457.16;5032267;28;20178;-65
2021/08/26 09:23:26;;;;;;;11.83;9.57;;;;;;;16.55;85.78;96459.00;5030833;28;20218;-72
2021/08/26 09:25:54;;;;;;;12.20;9.37;;;;;;;16.23;88.13;96459.41;5030819;28;20174;-65
2021/08/26 09:28:32;;;;;;;14.53;10.27;;;;;;;16.48;88.50;96452.44;5031471;28;20239;-65
2021/08/26 09:31:08;;;;;;;13.07;10.73;;;;;;;16.63;88.17;96458.47;5032821;28;20311;-65
2021/08/26 09:33:57;;;;;;;11.97;10.23;;;;;;;16.58;89.76;96460.31;5049192;28;20177;-64
2021/08/26 09:36:24;;;;;;;12.07;10.43;;;;;;;16.60;90.61;96466.19;5050203;28;20281;-73
2021/08/26 09:38:55;;;;;;;13.73;10.87;;;;;;;16.68;88.34;96464.78;5051280;28;20240;-65
2021/08/26 09:41:52;;;;;;;12.17;10.43;;;;;;;16.60;92.67;96474.91;5038098;28;20227;-72
2021/08/26 09:44:22;;;;;;;11.67;10.17;;;;;;;17.03;91.32;96462.75;5051384;28;20174;-65
2021/08/26 09:46:50;;;;;;;12.83;10.53;;;;;;;16.67;90.45;96460.56;5050868;28;20181;-65
2021/08/26 09:49:18;;;;;;;12.57;9.73;;;;;;;16.56;91.50;96465.88;5051023;28;20259;-65
2021/08/26 09:51:45;;;;;;;9.97;8.97;;;;;;;16.50;93.09;96471.47;5049719;28;20390;-65
2021/08/26 09:54:30;;;;;;;9.50;8.50;;;;;;;16.36;93.77;96460.69;5051140;28;20273;-65
2021/08/26 09:56:56;;;;;;;10.33;8.60;;;;;;;16.34;92.32;96472.59;5051095;28;20201;-65
2021/08/26 09:59:48;;;;;;;8.70;7.23;;;;;;;16.44;93.14;96468.03;5045325;28;20186;-73
2021/08/26 10:02:14;;;;;;;8.20;7.40;;;;;;;16.56;93.91;96470.38;5050971;28;20257;-65
2021/08/26 10:04:41;;;;;;;8.30;6.93;;;;;;;16.58;92.72;96477.00;5035255;28;20609;-66
2021/08/26 10:07:06;;;;;;;7.93;7.17;;;;;;;16.73;92.70;96473.50;5031545;28;20266;-65
2021/08/26 10:09:33;;;;;;;7.57;6.87;;;;;;;16.77;92.97;96474.56;5036535;28;20274;-65
2021/08/26 10:11:58;;;;;;;11.00;7.30;;;;;;;16.89;92.15;96480.28;5028684;28;20219;-65
2021/08/26 10:14:25;;;;;;;6.70;6.00;;;;;;;16.11;92.71;96473.97;5043319;28;20186;-73
2021/08/26 10:16:50;;;;;;;5.53;5.03;;;;;;;15.82;96.46;96483.59;5039183;28;20199;-65
2021/08/26 10:19:16;;;;;;;5.73;5.10;;;;;;;15.34;99.35;96483.03;5041154;28;20277;-64
2021/08/26 10:21:44;;;;;;;6.03;5.43;;;;;;;15.47;100.00;96482.53;5045870;28;20969;-64
2021/08/26 10:24:12;;;;;;;5.30;4.80;;;;;;;15.22;99.44;96485.13;5034157;28;20185;-65
2021/08/26 10:26:38;;;;;;;6.43;4.70;;;;;;;14.87;100.00;96486.69;5032612;28;20186;-65
2021/08/26 10:29:07;;;;;;;5.57;5.03;;;;;;;14.51;100.00;96488.41;5053529;28;20209;-65
2021/08/26 10:31:35;;;;;;;9.03;5.57;;;;;;;14.44;100.00;96487.84;5051603;28;20181;-65
2021/08/26 10:34:12;;;;;;;6.17;4.90;;;;;;;14.21;100.00;96492.75;5034610;28;20528;-66
2021/08/26 10:36:46;;;;;;;7.60;5.77;;;;;;;14.38;100.00;96494.16;5033722;28;20190;-65
2021/08/26 10:39:30;;;;;;;11.30;7.47;;;;;;;14.32;100.00;96483.84;5034256;28;20182;-67
2021/08/26 10:42:16;;;;;;;5.70;5.07;;;;;;;14.45;100.00;96483.38;5045452;28;20290;-66
2021/08/26 10:45:02;;;;;;;4.60;4.20;;;;;;;14.37;100.00;96482.06;5049082;28;20202;-66
2021/08/26 10:47:50;;;;;;;4.20;3.90;;;;;;;14.81;100.00;96471.91;5045497;28;20186;-66
2021/08/26 10:50:36;;;;;;;3.93;2.43;;;;;;;15.09;100.00;96467.19;5052915;28;20186;-66
2021/08/26 10:53:04;;;;;;;3.00;2.80;;;;;;;15.47;99.09;96473.81;5037113;28;20185;-65
2021/08/26 10:55:39;;;;;;;3.13;2.93;;;;;;;16.08;98.29;96471.88;5032632;28;20213;-66
2021/08/26 10:58:23;;;;;;;3.77;3.47;;;;;;;16.18;91.93;96453.34;5048820;28;20169;-63
2021/08/26 11:00:58;;;;;;;3.83;3.53;;;;;;;16.12;91.93;96467.63;5053004;28;20199;-65
2021/08/26 11:03:36;;;;;;;4.87;4.00;;;;;;;15.71;93.58;96475.69;5035749;28;20261;-73
2021/08/26 11:06:14;;;;;;;3.87;3.57;;;;;;;16.26;92.48;96462.59;5033615;28;20273;-65
2021/08/26 11:08:41;;;;;;;3.83;3.53;;;;;;;16.28;90.35;96463.09;5032731;28;20191;-67
2021/08/26 11:11:25;;;;;;;4.30;4.00;;;;;;;15.78;90.12;96462.97;5033501;28;20270;-65
2021/08/26 11:13:51;;;;;;;4.20;3.90;;;;;;;16.17;88.92;96454.41;5013299;28;20187;-65
2021/08/26 11:16:23;;;;;;;3.93;3.63;;;;;;;16.45;87.91;96459.06;5013306;28;20207;-63
2021/08/26 11:18:48;;;;;;;3.33;3.10;;;;;;;16.32;87.50;96450.94;5031534;28;20272;-65
2021/08/26 11:21:14;;;;;;;3.10;2.90;;;;;;;16.42;84.78;96453.53;5034631;28;20183;-65
2021/08/26 11:23:44;;;;;;;3.93;3.63;;;;;;;17.16;83.69;96457.91;5041795;28;20194;-63
2021/08/26 11:26:40;;;;;;;4.63;3.17;;;;;;;17.21;80.09;96447.25;5033107;28;20178;-63
2021/08/26 11:29:18;;;;;;;3.17;2.87;;;;;;;17.62;74.63;96453.81;5033210;28;20213;-63
2021/08/26 11:31:58;;;;;;;3.43;3.03;;;;;;;17.95;71.88;96452.16;5044131;28;20224;-64
2021/08/26 11:34:35;;;;;;;3.30;3.07;;;;;;;18.41;71.55;96447.16;5051934;28;20166;-63
2021/08/26 11:37:08;;;;;;;4.03;3.65;;;;;;;18.57;70.31;96459.19;5052955;28;20209;-63
2021/08/26 11:39:37;;;;;;;5.57;3.58;;;;;;;18.73;68.61;96456.31;5049800;28;20186;-64